createdAt,value
2019-05-30T00:01:46.504Z,5.25
2019-05-30T00:04:20.747Z,4.87
2019-05-30T00:06:54.748Z,4.90
2019-05-30T00:12:03.060Z,4.92
2019-05-30T00:14:37.282Z,5.25
2019-05-30T00:17:11.209Z,5.47
2019-05-30T00:22:18.337Z,4.87
2019-05-30T00:27:25.303Z,4.95
2019-05-30T00:29:59.314Z,5.03
2019-05-30T00:32:33.269Z,4.70
2019-05-30T00:37:40.907Z,4.33
2019-05-30T00:42:47.889Z,4.75
2019-05-30T00:45:21.971Z,4.50
2019-05-30T00:47:58.074Z,4.53
2019-05-30T00:50:32.043Z,5.17
2019-05-30T00:53:07.033Z,4.85
2019-05-30T00:55:41.138Z,4.92
2019-05-30T01:00:48.145Z,6.25
2019-05-30T01:03:22.147Z,5.78
2019-05-30T01:05:56.702Z,6.05
2019-05-30T01:08:30.746Z,6.65
2019-05-30T01:16:12.449Z,7.67
2019-05-30T01:18:46.771Z,7.75
2019-05-30T01:21:20.723Z,8.48
2019-05-30T01:26:27.673Z,7.95
2019-05-30T01:31:35.377Z,7.12
2019-05-30T01:34:09.337Z,7.45
2019-05-30T01:39:16.327Z,7.40
2019-05-30T01:44:23.370Z,7.28
2019-05-30T01:49:32.146Z,7.12
2019-05-30T01:54:40.698Z,7.75
2019-05-30T01:59:48.043Z,7.55
2019-05-30T02:02:21.930Z,6.65
2019-05-30T02:04:55.736Z,6.30
2019-05-30T02:07:29.617Z,6.45
2019-05-30T02:12:37.346Z,6.20
2019-05-30T02:17:44.649Z,5.80
2019-05-30T02:22:52.615Z,5.62
2019-05-30T02:28:00.020Z,6.05
2019-05-30T02:30:34.052Z,5.90
2019-05-30T02:33:10.559Z,6.40
2019-05-30T02:35:43.711Z,6.33
2019-05-30T02:40:50.987Z,5.53
2019-05-30T02:43:24.781Z,6.10
2019-05-30T02:45:58.654Z,6.20
2019-05-30T02:48:32.503Z,5.30
2019-05-30T02:51:07.913Z,5.72
2019-05-30T02:53:41.845Z,6.15
2019-05-30T02:56:15.734Z,5.78
2019-05-30T02:58:49.545Z,5.78
2019-05-30T03:01:23.368Z,5.80
2019-05-30T03:03:57.479Z,6.45
2019-05-30T03:06:31.554Z,6.55
2019-05-30T03:09:09.071Z,6.20
2019-05-30T03:11:43.145Z,6.10
2019-05-30T03:16:51.918Z,5.85
2019-05-30T03:21:59.144Z,5.65
2019-05-30T03:27:06.990Z,5.65
2019-05-30T03:29:41.772Z,5.60
2019-05-30T03:34:51.597Z,6.75
2019-05-30T03:42:34.643Z,5.87
2019-05-30T03:45:11.360Z,5.92
2019-05-30T03:47:48.492Z,5.67
2019-05-30T03:50:25.231Z,5.60
2019-05-30T03:53:01.173Z,5.67
2019-05-30T03:55:37.605Z,5.37
2019-05-30T03:58:23.278Z,5.92
2019-05-30T04:01:02.663Z,5.12
2019-05-30T04:03:45.343Z,5.47
2019-05-30T04:06:22.113Z,4.87
2019-05-30T04:08:58.905Z,4.95
2019-05-30T04:11:42.872Z,4.85
2019-05-30T04:14:22.651Z,4.55
2019-05-30T04:16:56.492Z,4.50
2019-05-30T04:19:30.301Z,4.40
2019-05-30T04:22:04.170Z,4.55
2019-05-30T04:24:38.085Z,4.47
2019-05-30T04:27:13.715Z,4.40
2019-05-30T04:29:48.882Z,4.78
2019-05-30T04:32:22.762Z,4.35
2019-05-30T04:34:56.761Z,4.28
2019-05-30T04:37:30.731Z,4.03
2019-05-30T04:45:15.958Z,3.92
2019-05-30T04:47:51.359Z,3.52
2019-05-30T04:50:25.191Z,3.80
2019-05-30T04:52:59.017Z,3.58
2019-05-30T04:55:32.802Z,3.20
2019-05-30T04:58:06.670Z,3.30
2019-05-30T05:00:40.441Z,3.10
2019-05-30T05:03:15.443Z,2.90
2019-05-30T05:05:49.424Z,3.33
2019-05-30T05:08:23.495Z,2.92
2019-05-30T05:10:57.433Z,3.10
2019-05-30T05:16:22.111Z,2.80
2019-05-30T05:18:40.089Z,2.95
2019-05-30T05:23:47.283Z,2.75
2019-05-30T05:26:21.608Z,2.83
2019-05-30T05:28:55.855Z,2.87
2019-05-30T05:31:29.730Z,2.67
2019-05-30T05:36:36.673Z,2.40
2019-05-30T05:41:43.654Z,2.40
2019-05-30T05:44:18.281Z,2.08
2019-05-30T05:46:52.579Z,2.40
2019-05-30T05:49:26.441Z,2.22
2019-05-30T05:54:33.333Z,2.40
2019-05-30T05:59:41.052Z,2.15
2019-05-30T06:02:17.641Z,2.02
2019-05-30T06:04:51.889Z,1.98
2019-05-30T06:07:26.738Z,2.02
2019-05-30T06:10:00.701Z,1.77
2019-05-30T06:12:34.738Z,2.00
2019-05-30T06:15:10.367Z,1.92
2019-05-30T06:17:44.494Z,1.87
2019-05-30T06:20:19.231Z,1.75
2019-05-30T06:22:53.257Z,2.40
2019-05-30T06:25:32.336Z,1.50
2019-05-30T06:28:03.273Z,1.47
2019-05-30T06:30:37.273Z,1.67
2019-05-30T06:33:11.293Z,1.27
2019-05-30T06:35:45.312Z,1.15
2019-05-30T06:38:19.175Z,0.98
2019-05-30T06:40:53.009Z,1.10
2019-05-30T06:43:28.133Z,1.30
2019-05-30T06:46:02.230Z,0.80
2019-05-30T06:48:36.118Z,0.90
2019-05-30T06:51:09.898Z,1.05
2019-05-30T06:53:43.792Z,0.98
2019-05-30T06:56:17.684Z,1.00
2019-05-30T06:58:51.515Z,0.80
2019-05-30T07:01:27.886Z,0.95
2019-05-30T07:04:02.263Z,1.10
2019-05-30T07:06:36.666Z,1.00
2019-05-30T07:09:10.835Z,0.85
2019-05-30T07:11:44.696Z,1.02
2019-05-30T07:14:18.562Z,1.00
2019-05-30T07:16:52.582Z,0.95
2019-05-30T07:19:27.415Z,1.02
2019-05-30T07:22:01.250Z,1.40
2019-05-30T07:24:35.222Z,0.93
2019-05-30T07:27:09.030Z,1.10
2019-05-30T07:29:42.924Z,1.10
2019-05-30T07:32:16.753Z,1.37
2019-05-30T07:35:05.701Z,1.90
2019-05-30T07:37:26.717Z,1.20
2019-05-30T07:40:00.624Z,1.22
2019-05-30T07:42:34.807Z,1.27
2019-05-30T07:45:13.215Z,1.20
2019-05-30T07:47:47.144Z,1.20
2019-05-30T07:50:21.198Z,1.10
2019-05-30T07:52:55.291Z,1.00
2019-05-30T07:55:31.207Z,1.10
2019-05-30T07:58:05.281Z,1.10
2019-05-30T08:00:39.563Z,1.37
2019-05-30T08:03:13.432Z,1.10
2019-05-30T08:05:47.507Z,1.50
2019-05-30T08:08:21.452Z,1.42
2019-05-30T08:11:08.266Z,1.20
2019-05-30T08:13:31.352Z,1.35
2019-05-30T08:16:07.141Z,1.50
2019-05-30T08:18:41.008Z,1.20
2019-05-30T08:21:14.843Z,1.45
2019-05-30T08:23:48.685Z,1.87
2019-05-30T08:26:22.534Z,1.50
2019-05-30T08:28:56.580Z,1.55
2019-05-30T08:31:30.485Z,1.42
2019-05-30T08:34:05.465Z,1.10
2019-05-30T08:36:39.604Z,1.10
2019-05-30T08:39:13.669Z,1.40
2019-05-30T08:41:47.465Z,1.25
2019-05-30T08:44:23.349Z,1.17
2019-05-30T08:46:57.218Z,1.02
2019-05-30T08:49:31.835Z,1.50
2019-05-30T08:52:05.956Z,1.10
2019-05-30T08:54:40.558Z,1.15
2019-05-30T08:57:14.958Z,1.10
2019-05-30T08:59:48.921Z,1.00
2019-05-30T09:02:25.301Z,1.20
2019-05-30T09:04:59.238Z,1.42
2019-05-30T09:07:33.161Z,1.20
2019-05-30T09:10:08.501Z,1.00
2019-05-30T09:12:45.492Z,1.32
2019-05-30T09:15:21.902Z,1.02
2019-05-30T09:17:54.976Z,1.15
2019-05-30T09:20:31.932Z,1.32
2019-05-30T09:23:06.185Z,1.10
2019-05-30T09:25:41.619Z,1.20
2019-05-30T09:28:15.667Z,0.90
2019-05-30T09:30:49.556Z,1.40
2019-05-30T09:33:23.423Z,0.93
2019-05-30T09:36:12.242Z,1.00
2019-05-30T09:38:33.074Z,0.80
2019-05-30T09:41:07.152Z,1.10
2019-05-30T09:43:42.830Z,1.20
2019-05-30T09:46:17.130Z,1.10
2019-05-30T09:48:51.800Z,1.32
2019-05-30T09:51:25.899Z,1.10
2019-05-30T09:53:59.748Z,1.10
2019-05-30T09:56:33.834Z,1.00
2019-05-30T09:59:07.967Z,1.10
2019-05-30T10:01:43.071Z,1.20
2019-05-30T10:04:17.722Z,1.20
2019-05-30T10:06:52.563Z,1.05
2019-05-30T10:09:26.726Z,1.10
2019-05-30T10:12:00.907Z,0.90
2019-05-30T10:14:35.592Z,1.00
2019-05-30T10:17:09.538Z,1.00
2019-05-30T10:19:45.382Z,1.00
2019-05-30T10:22:19.315Z,1.10
2019-05-30T10:24:53.426Z,1.00
2019-05-30T10:27:27.718Z,1.65
2019-05-30T10:30:01.523Z,0.98
2019-05-30T10:32:36.454Z,1.10
2019-05-30T10:35:10.540Z,0.90
2019-05-30T10:37:46.748Z,1.10
2019-05-30T10:40:21.407Z,1.30
2019-05-30T10:42:56.772Z,1.10
2019-05-30T10:45:31.087Z,1.10
2019-05-30T10:48:05.105Z,1.15
2019-05-30T10:50:39.467Z,1.20
2019-05-30T10:53:13.273Z,1.62
2019-05-30T10:55:48.172Z,1.25
2019-05-30T10:58:22.063Z,1.37
2019-05-30T11:03:32.235Z,1.30
2019-05-30T11:06:24.535Z,1.30
2019-05-30T11:09:00.597Z,1.52
2019-05-30T11:11:34.725Z,1.30
2019-05-30T11:14:08.677Z,1.40
2019-05-30T11:19:15.594Z,1.35
2019-05-30T11:21:49.752Z,1.47
2019-05-30T11:24:24.942Z,1.70
2019-05-30T11:26:59.020Z,1.42
2019-05-30T11:29:32.892Z,1.67
2019-05-30T11:32:06.956Z,1.37
2019-05-30T11:37:18.682Z,1.30
2019-05-30T11:39:51.160Z,1.30
2019-05-30T11:42:25.187Z,1.20
2019-05-30T11:47:34.228Z,1.80
2019-05-30T11:50:08.479Z,1.40
2019-05-30T11:52:42.950Z,1.30
2019-05-30T11:55:16.943Z,1.30
2019-05-30T12:00:26.960Z,1.42
2019-05-30T12:03:00.853Z,1.75
2019-05-30T12:05:34.800Z,1.32
2019-05-30T12:08:08.646Z,1.45
2019-05-30T12:10:42.533Z,1.10
2019-05-30T12:13:16.404Z,1.42
2019-05-30T12:15:51.341Z,1.30
2019-05-30T12:18:25.380Z,1.30
2019-05-30T12:20:59.815Z,1.30
2019-05-30T12:23:33.756Z,1.15
2019-05-30T12:26:07.784Z,1.30
2019-05-30T12:28:41.751Z,1.35
2019-05-30T12:33:48.685Z,1.60
2019-05-30T12:36:22.899Z,1.70
2019-05-30T12:38:56.980Z,1.45
2019-05-30T12:44:04.003Z,1.62
2019-05-30T12:46:37.888Z,1.60
2019-05-30T12:49:11.901Z,1.37
2019-05-30T12:51:45.756Z,1.67
2019-05-30T12:54:19.659Z,1.30
2019-05-30T12:56:54.578Z,1.35
2019-05-30T12:59:28.521Z,1.27
2019-05-30T13:02:03.077Z,1.22
2019-05-30T13:04:37.245Z,1.27
2019-05-30T13:12:21.832Z,1.60
2019-05-30T13:14:56.062Z,1.57
2019-05-30T13:17:30.138Z,1.75
2019-05-30T13:22:49.702Z,1.35
2019-05-30T13:25:26.934Z,1.22
2019-05-30T13:28:04.773Z,1.50
2019-05-30T13:30:37.088Z,1.60
2019-05-30T13:33:17.378Z,1.60
2019-05-30T13:35:54.578Z,1.72
2019-05-30T13:38:33.435Z,1.60
2019-05-30T13:41:07.791Z,1.67
2019-05-30T13:43:42.494Z,1.50
2019-05-30T13:46:33.128Z,1.65
2019-05-30T13:49:15.729Z,1.47
2019-05-30T13:51:50.198Z,1.40
2019-05-30T13:54:32.322Z,1.45
2019-05-30T13:59:57.077Z,1.50
2019-05-30T14:05:10.522Z,1.40
2019-05-30T14:07:46.415Z,1.40
2019-05-30T14:10:20.646Z,1.45
2019-05-30T14:12:54.576Z,1.77
2019-05-30T14:15:28.617Z,1.50
2019-05-30T14:23:11.762Z,1.40
2019-05-30T14:25:46.219Z,1.65
2019-05-30T14:28:20.370Z,1.50
2019-05-30T14:30:55.926Z,1.50
2019-05-30T14:33:29.752Z,1.50
2019-05-30T14:36:07.283Z,1.67
2019-05-30T14:38:39.335Z,1.60
2019-05-30T14:41:13.486Z,1.85
2019-05-30T14:43:47.717Z,2.00
2019-05-30T14:46:21.596Z,1.72
2019-05-30T14:48:55.416Z,1.60
2019-05-30T14:51:53.753Z,1.35
2019-05-30T14:54:25.188Z,1.40
2019-05-30T14:59:33.814Z,1.40
2019-05-30T15:04:41.198Z,2.08
2019-05-30T15:09:49.719Z,1.60
2019-05-30T15:12:23.724Z,1.60
2019-05-30T15:14:57.586Z,1.70
2019-05-30T15:17:31.516Z,1.85
2019-05-30T15:20:12.134Z,1.77
2019-05-30T15:22:47.666Z,1.80
2019-05-30T15:25:21.637Z,1.60
2019-05-30T15:27:55.608Z,1.72
2019-05-30T15:30:29.602Z,1.30
2019-05-30T15:33:03.558Z,1.87
2019-05-30T15:35:37.550Z,1.50
2019-05-30T15:38:12.935Z,1.60
2019-05-30T15:40:47.059Z,1.70
2019-05-30T15:45:58.150Z,1.60
2019-05-30T15:51:05.445Z,1.57
2019-05-30T15:53:39.255Z,1.98
2019-05-30T15:56:15.369Z,1.40
2019-05-30T15:58:49.889Z,2.20
2019-05-30T16:01:23.786Z,1.77
2019-05-30T16:03:57.879Z,1.72
2019-05-30T16:09:06.749Z,1.87
2019-05-30T16:11:40.673Z,1.60
2019-05-30T16:14:17.348Z,1.70
2019-05-30T16:16:51.524Z,1.60
2019-05-30T16:22:00.163Z,1.62
2019-05-30T16:24:34.078Z,1.57
2019-05-30T16:27:07.951Z,1.60
2019-05-30T16:29:43.183Z,1.80
2019-05-30T16:32:18.666Z,1.77
2019-05-30T16:34:52.765Z,1.50
2019-05-30T16:37:26.952Z,1.70
2019-05-30T16:40:05.759Z,1.80
2019-05-30T16:42:36.667Z,1.72
2019-05-30T16:47:44.307Z,1.70
2019-05-30T16:50:21.050Z,1.70
2019-05-30T16:52:54.898Z,2.10
2019-05-30T16:55:28.779Z,1.95
2019-05-30T16:58:02.720Z,1.72
2019-05-30T17:00:36.689Z,2.05
2019-05-30T17:03:11.014Z,1.70
2019-05-30T17:05:45.059Z,1.82
2019-05-30T17:08:20.095Z,1.92
2019-05-30T17:10:54.314Z,1.82
2019-05-30T17:16:03.311Z,2.00
2019-05-30T17:21:10.717Z,2.45
2019-05-30T17:23:45.133Z,2.47
2019-05-30T17:26:21.238Z,2.55
2019-05-30T17:28:55.372Z,2.60
2019-05-30T17:31:29.439Z,2.70
2019-05-30T17:36:37.015Z,2.90
2019-05-30T17:39:11.253Z,2.30
2019-05-30T17:44:21.048Z,2.27
2019-05-30T17:46:55.209Z,2.37
2019-05-30T17:52:04.583Z,3.10
2019-05-30T17:54:38.998Z,2.95
2019-05-30T17:57:13.515Z,3.65
2019-05-30T17:59:47.594Z,3.80
2019-05-30T18:04:56.653Z,4.25
2019-05-30T18:07:31.191Z,3.90
2019-05-30T18:10:07.409Z,4.78
2019-05-30T18:12:41.655Z,4.05
2019-05-30T18:15:17.901Z,3.83
2019-05-30T18:17:53.346Z,3.62
2019-05-30T18:20:27.462Z,4.03
2019-05-30T18:23:01.367Z,4.03
2019-05-30T18:25:35.176Z,4.55
2019-05-30T18:28:08.984Z,5.00
2019-05-30T18:30:44.021Z,5.10
2019-05-30T18:33:17.844Z,5.00
2019-05-30T18:35:52.454Z,5.05
2019-05-30T18:38:28.327Z,5.40
2019-05-30T18:41:11.347Z,6.45
2019-05-30T18:43:38.053Z,6.62
2019-05-30T18:46:12.345Z,7.60
2019-05-30T18:48:46.592Z,7.50
2019-05-30T18:51:20.673Z,8.25
2019-05-30T18:56:30.650Z,11.65
2019-05-30T18:59:05.534Z,12.80
2019-05-30T19:01:39.442Z,16.50
2019-05-30T19:04:13.471Z,14.85
2019-05-30T19:09:21.787Z,16.97
2019-05-30T19:11:56.299Z,16.70
2019-05-30T19:14:33.793Z,16.55
2019-05-30T19:17:07.449Z,15.50
2019-05-30T19:19:41.721Z,14.63
2019-05-30T19:22:17.449Z,12.93
2019-05-30T19:24:51.460Z,11.43
2019-05-30T19:27:26.289Z,12.15
2019-05-30T19:30:00.321Z,13.48
2019-05-30T19:32:35.052Z,13.25
2019-05-30T19:35:11.078Z,12.73
2019-05-30T19:37:44.904Z,13.28
2019-05-30T19:40:19.075Z,12.58
2019-05-30T19:45:26.303Z,8.05
2019-05-30T19:50:34.838Z,6.62
2019-05-30T19:53:08.721Z,6.50
2019-05-30T19:55:42.543Z,6.72
2019-05-30T19:58:17.760Z,6.40
2019-05-30T20:00:58.574Z,7.10
2019-05-30T20:03:40.909Z,6.60
2019-05-30T20:06:03.292Z,6.60
2019-05-30T20:08:53.330Z,7.08
2019-05-30T20:11:12.639Z,7.50
2019-05-30T20:13:46.498Z,8.40
2019-05-30T20:16:20.378Z,7.70
2019-05-30T20:18:55.286Z,7.60
2019-05-30T20:21:29.179Z,7.75
2019-05-30T20:24:03.144Z,8.03
2019-05-30T20:26:38.490Z,8.00
2019-05-30T20:29:13.130Z,7.45
2019-05-30T20:31:47.201Z,7.60
2019-05-30T20:36:54.484Z,7.65
2019-05-30T20:39:28.339Z,7.67
2019-05-30T20:42:17.981Z,8.98
2019-05-30T20:44:38.871Z,9.30
2019-05-30T20:47:12.857Z,10.43
2019-05-30T20:49:47.501Z,10.00
2019-05-30T20:52:21.561Z,9.70
2019-05-30T20:54:55.477Z,8.78
2019-05-30T20:57:29.349Z,8.60
2019-05-30T21:00:05.003Z,9.45
2019-05-30T21:02:39.190Z,10.05
2019-05-30T21:05:13.426Z,10.00
2019-05-30T21:07:49.005Z,8.53
2019-05-30T21:10:23.354Z,8.25
2019-05-30T21:13:00.227Z,6.25
2019-05-30T21:15:37.496Z,5.72
2019-05-30T21:18:11.536Z,5.60
2019-05-30T21:20:46.190Z,5.12
2019-05-30T21:23:20.141Z,4.70
2019-05-30T21:25:54.301Z,6.05
2019-05-30T21:28:28.173Z,5.17
2019-05-30T21:31:02.047Z,5.25
2019-05-30T21:33:37.239Z,4.80
2019-05-30T21:36:11.465Z,4.90
2019-05-30T21:38:46.096Z,5.00
2019-05-30T21:41:20.128Z,4.97
2019-05-30T21:43:54.049Z,4.92
2019-05-30T21:46:27.958Z,4.83
2019-05-30T21:49:01.839Z,4.95
2019-05-30T21:51:35.731Z,5.17
2019-05-30T21:54:09.653Z,5.28
2019-05-30T21:56:44.016Z,5.25
2019-05-30T21:59:17.960Z,5.10
2019-05-30T22:01:57.058Z,5.50
2019-05-30T22:04:27.571Z,5.05
2019-05-30T22:07:01.536Z,5.60
2019-05-30T22:09:35.427Z,5.08
2019-05-30T22:12:09.191Z,5.08
2019-05-30T22:14:43.703Z,4.75
2019-05-30T22:17:17.710Z,4.87
2019-05-30T22:19:52.239Z,5.28
2019-05-30T22:22:26.192Z,5.00
2019-05-30T22:25:00.055Z,5.30
2019-05-30T22:27:33.912Z,5.10
2019-05-30T22:30:08.033Z,5.33
2019-05-30T22:35:16.543Z,5.22
2019-05-30T22:37:51.033Z,4.97
2019-05-30T22:40:25.001Z,4.80
2019-05-30T22:42:58.847Z,5.42
2019-05-30T22:45:32.719Z,4.92
2019-05-30T22:48:06.685Z,5.40
2019-05-30T22:50:40.569Z,5.40
2019-05-30T22:53:14.494Z,5.17
2019-05-30T22:55:49.151Z,5.22
2019-05-30T22:58:23.139Z,5.30
2019-05-30T23:00:57.084Z,5.30
2019-05-30T23:03:31.071Z,5.40
2019-05-30T23:06:05.259Z,5.00
2019-05-30T23:11:12.332Z,5.15
2019-05-30T23:16:19.713Z,4.80
2019-05-30T23:18:54.740Z,4.50
2019-05-30T23:21:28.959Z,4.95
2019-05-30T23:26:36.009Z,4.87
2019-05-30T23:29:09.982Z,4.75
2019-05-30T23:31:43.813Z,4.72
2019-05-30T23:34:17.613Z,4.90
2019-05-30T23:36:52.435Z,4.75
2019-05-30T23:39:26.393Z,4.67
2019-05-30T23:42:00.326Z,4.85
2019-05-30T23:44:34.135Z,4.62
2019-05-30T23:47:08.057Z,4.90
2019-05-30T23:49:42.093Z,4.70
2019-05-30T23:52:16.166Z,4.50
2019-05-30T23:57:23.953Z,4.60
2019-05-30T23:59:58.828Z,4.78
